Time;durP1;ratioP1;P1;durP2;ratioP2;P2;SDS_P1;SDS_P2;PMS_P1;PMS_P2;Temp;Humidity;BMP_temperature;BMP_pressure;BME280_temperature;BME280_humidity;BME280_pressure;Samples;Min_cycle;Max_cycle;Signal;HPM_P1;HPM_P2
2021/01/13 00:00:13;;;;;;;13.93;5.07;;;1.00;99.90;;;-146.47;100.00;66290.13;4975597;28;20698;-76
2021/01/13 00:02:58;;;;;;;14.30;4.90;;;1.00;99.90;;;-146.47;100.00;66290.13;4965489;28;20213;-76
2021/01/13 00:05:43;;;;;;;14.97;5.27;;;1.00;99.90;;;-146.47;100.00;66290.13;4966651;28;20275;-77
2021/01/13 00:08:29;;;;;;;14.13;4.50;;;1.00;99.90;;;-146.47;100.00;66290.13;4968384;28;20984;-76
2021/01/13 00:11:15;;;;;;;14.43;4.30;;;1.00;99.90;;;-146.47;100.00;66290.13;4968500;28;20208;-75
2021/01/13 00:14:00;;;;;;;14.77;4.63;;;1.00;99.90;;;-146.47;100.00;66290.13;4970430;28;20213;-75
2021/01/13 00:16:46;;;;;;;15.40;4.53;;;1.00;99.90;;;-146.47;100.00;66290.13;4969137;28;20306;-77
2021/01/13 00:19:31;;;;;;;13.57;4.57;;;1.20;99.90;;;-146.47;100.00;66290.13;4966689;28;20303;-77
2021/01/13 00:22:16;;;;;;;15.33;5.50;;;1.00;99.90;;;-146.47;100.00;66290.13;4968867;28;20229;-77
2021/01/13 00:25:03;;;;;;;10.57;3.13;;;1.00;99.90;;;-146.47;100.00;66290.13;4966419;28;21175;-77
2021/01/13 00:27:49;;;;;;;15.53;5.40;;;1.00;99.90;;;-146.47;100.00;66290.13;4970401;28;20776;-77
2021/01/13 00:30:34;;;;;;;14.87;5.07;;;1.00;99.90;;;-146.47;100.00;66290.13;4969058;28;20269;-77
2021/01/13 00:33:19;;;;;;;14.37;5.03;;;1.00;99.90;;;-146.47;100.00;66290.13;4972846;28;20226;-77
2021/01/13 00:36:05;;;;;;;16.90;4.73;;;1.00;99.90;;;-146.47;100.00;66290.13;4967337;28;20229;-78
2021/01/13 00:38:52;;;;;;;14.80;4.93;;;1.00;99.90;;;-146.47;100.00;66290.13;4974094;28;20222;-77
2021/01/13 00:41:39;;;;;;;12.27;5.10;;;1.00;99.90;;;-146.47;100.00;66290.13;4977094;28;20237;-75
2021/01/13 00:44:23;;;;;;;15.63;5.50;;;1.00;99.90;;;-146.47;100.00;66290.13;4973087;28;20282;-75
2021/01/13 00:47:13;;;;;;;14.97;4.90;;;0.90;99.90;;;-146.47;100.00;66290.13;4973506;28;20205;-76
2021/01/13 00:49:58;;;;;;;13.43;4.77;;;0.90;99.90;;;-146.47;100.00;66290.13;4973000;28;20251;-77
2021/01/13 00:52:49;;;;;;;14.93;5.30;;;0.90;99.90;;;-146.47;100.00;66290.13;4966139;28;20215;-77
2021/01/13 00:55:34;;;;;;;15.57;5.20;;;0.90;99.90;;;-146.47;100.00;66290.13;4967875;28;20226;-77
2021/01/13 00:58:22;;;;;;;17.03;5.00;;;0.80;99.90;;;-146.47;100.00;66290.13;4971373;28;20213;-77
2021/01/13 01:01:07;;;;;;;13.03;4.00;;;0.90;99.90;;;-146.47;100.00;66290.13;4976546;28;20588;-77
2021/01/13 01:03:53;;;;;;;14.50;5.10;;;0.90;99.90;;;-146.47;100.00;66290.13;4975465;28;20220;-74
2021/01/13 01:06:39;;;;;;;13.50;4.53;;;0.90;99.90;;;-146.47;100.00;66290.13;4968884;28;20760;-77
2021/01/13 01:09:23;;;;;;;20.63;5.60;;;0.80;99.90;;;-146.47;100.00;66290.13;4967615;28;20619;-77
2021/01/13 01:12:09;;;;;;;19.13;5.33;;;1.00;99.90;;;-146.47;100.00;66290.13;4976532;28;20683;-77
2021/01/13 01:14:55;;;;;;;18.93;5.20;;;0.90;99.90;;;-146.47;100.00;66290.13;4975749;28;20221;-76
2021/01/13 01:17:40;;;;;;;18.60;5.00;;;0.90;99.90;;;-146.47;100.00;66290.13;4966803;28;20255;-76
2021/01/13 01:20:26;;;;;;;19.03;5.60;;;1.00;99.90;;;-146.47;100.00;66290.13;4979256;28;20222;-77
2021/01/13 01:23:11;;;;;;;16.63;4.90;;;1.00;99.90;;;-146.47;100.00;66290.13;4964661;28;20624;-76
2021/01/13 01:25:57;;;;;;;14.73;5.33;;;1.00;99.90;;;-146.47;100.00;66290.13;4980784;28;20241;-76
2021/01/13 01:28:42;;;;;;;18.70;5.80;;;1.10;99.90;;;-146.47;100.00;66290.13;4973739;28;20257;-77
2021/01/13 01:31:28;;;;;;;15.33;5.20;;;1.10;99.90;;;-146.47;100.00;66290.13;4982342;28;20287;-77
2021/01/13 01:34:13;;;;;;;20.20;6.03;;;1.20;99.90;;;-146.47;100.00;66290.13;4969245;28;20254;-76
2021/01/13 01:36:58;;;;;;;15.47;5.80;;;1.20;99.90;;;-146.47;100.00;66290.13;4982798;28;20861;-77
2021/01/13 01:39:44;;;;;;;10.87;5.47;;;1.30;99.90;;;-146.47;100.00;66290.13;4967124;28;20595;-77
2021/01/13 01:42:29;;;;;;;18.87;5.47;;;1.30;99.90;;;-146.47;100.00;66290.13;4981432;28;20238;-78
2021/01/13 01:45:19;;;;;;;15.13;5.87;;;1.40;99.90;;;-146.47;100.00;66290.13;4974297;28;20293;-77
2021/01/13 01:48:27;;;;;;;17.60;5.37;;;1.50;99.90;;;-146.47;100.00;66290.13;4980284;28;20205;-76
2021/01/13 01:51:22;;;;;;;11.60;5.53;;;1.50;99.90;;;-146.47;100.00;66290.13;4975522;28;20233;-77
2021/01/13 01:54:17;;;;;;;14.50;4.83;;;1.60;99.90;;;-146.47;100.00;66290.13;4962565;28;20205;-76
2021/01/13 01:57:04;;;;;;;15.30;5.17;;;1.60;99.90;;;-146.47;100.00;66290.13;4981307;28;20570;-75
2021/01/13 02:00:01;;;;;;;12.53;5.07;;;1.70;99.90;;;-146.47;100.00;66290.13;4973205;28;20295;-74
2021/01/13 02:03:00;;;;;;;15.77;5.17;;;1.70;99.90;;;-146.47;100.00;66290.13;4975014;28;20205;-74
2021/01/13 02:05:47;;;;;;;12.90;4.70;;;1.80;99.90;;;-146.47;100.00;66290.13;4967063;28;20226;-76
2021/01/13 02:08:38;;;;;;;11.80;5.17;;;1.80;99.90;;;-146.47;100.00;66290.13;4978345;28;20257;-77
2021/01/13 02:11:27;;;;;;;10.17;4.80;;;1.80;99.90;;;-146.47;100.00;66290.13;4969369;28;20272;-77
2021/01/13 02:14:13;;;;;;;20.23;4.50;;;1.80;99.90;;;-146.47;100.00;66290.13;4967032;28;20206;-76
2021/01/13 02:17:07;;;;;;;11.97;4.37;;;1.90;99.90;;;-146.47;100.00;66290.13;4973758;28;20221;-76
2021/01/13 02:20:14;;;;;;;9.63;4.07;;;1.80;99.90;;;-146.47;100.00;66290.13;4969777;28;20233;-76
2021/01/13 02:23:08;;;;;;;11.37;4.10;;;1.80;99.90;;;-146.47;100.00;66290.13;4975745;28;20260;-76
2021/01/13 02:26:58;;;;;;;12.17;4.43;;;1.80;99.90;;;-146.47;100.00;66290.13;4974804;28;20208;-76
2021/01/13 02:29:52;;;;;;;12.70;4.07;;;1.80;99.90;;;-146.47;100.00;66290.13;4975426;28;20779;-78
2021/01/13 02:32:45;;;;;;;5.17;3.00;;;1.70;99.90;;;-146.47;100.00;66290.13;4976141;28;20797;-77
2021/01/13 02:36:01;;;;;;;11.97;4.13;;;1.60;99.90;;;-146.47;100.00;66290.13;4981145;28;20205;-76
2021/01/13 02:38:52;;;;;;;16.13;4.33;;;1.60;99.90;;;-146.47;100.00;66290.13;4982548;28;20237;-76
2021/01/13 02:41:44;;;;;;;18.03;4.17;;;1.60;99.90;;;-146.47;100.00;66290.13;4966773;28;20229;-77
2021/01/13 02:44:31;;;;;;;13.03;4.57;;;1.60;99.90;;;-146.47;100.00;66290.13;4962294;28;20206;-77
2021/01/13 02:47:34;;;;;;;15.07;5.13;;;1.70;99.90;;;-146.47;100.00;66290.13;4973158;28;20282;-77
2021/01/13 02:50:24;;;;;;;15.53;5.57;;;1.50;99.90;;;-146.47;100.00;66290.13;4961797;28;20218;-78
2021/01/13 02:53:56;;;;;;;10.50;5.10;;;1.50;99.90;;;-146.47;100.00;66290.13;4980544;28;20670;-77
2021/01/13 02:56:44;;;;;;;14.57;5.33;;;1.50;99.90;;;-146.47;100.00;66290.13;4980458;28;20284;-77
2021/01/13 02:59:30;;;;;;;13.30;5.70;;;1.50;99.90;;;-146.47;100.00;66290.13;4972590;28;20230;-75
2021/01/13 03:02:17;;;;;;;14.57;5.33;;;1.60;99.90;;;-146.47;100.00;66290.13;4971205;28;20205;-77
2021/01/13 03:05:03;;;;;;;15.57;6.17;;;1.60;99.90;;;-146.47;100.00;66290.13;4972217;28;20217;-75
2021/01/13 03:07:56;;;;;;;19.33;6.93;;;1.60;99.90;;;-146.47;100.00;66290.13;4970841;28;20241;-78
2021/01/13 03:10:45;;;;;;;15.63;7.13;;;1.70;99.90;;;-146.47;100.00;66290.13;4971597;28;20298;-77
2021/01/13 03:13:44;;;;;;;14.87;6.27;;;1.80;99.90;;;-146.47;100.00;66290.13;4975460;28;20262;-77
2021/01/13 03:16:32;;;;;;;19.47;5.77;;;1.80;99.90;;;-146.47;100.00;66290.13;4959825;28;20230;-79
2021/01/13 03:19:30;;;;;;;12.37;4.93;;;1.90;99.90;;;-146.47;100.00;66290.13;4971007;28;20244;-78
2021/01/13 03:22:19;;;;;;;15.87;6.40;;;1.90;99.90;;;-146.47;100.00;66290.13;4979603;28;20205;-75
2021/01/13 03:25:09;;;;;;;7.63;4.77;;;2.00;99.90;;;-146.47;100.00;66290.13;4977910;28;20202;-77
2021/01/13 03:27:56;;;;;;;11.73;4.90;;;2.00;99.90;;;-146.47;100.00;66290.13;4965180;28;20206;-77
2021/01/13 03:30:46;;;;;;;12.93;5.27;;;2.00;99.90;;;-146.47;100.00;66290.13;4975870;28;20221;-76
2021/01/13 03:34:07;;;;;;;10.67;4.57;;;2.00;99.90;;;-146.47;100.00;66290.13;4966425;28;20230;-75
2021/01/13 03:37:06;;;;;;;10.40;5.73;;;2.00;99.90;;;-146.47;100.00;66290.13;4964563;28;20265;-75
2021/01/13 03:39:53;;;;;;;10.10;5.47;;;2.00;99.90;;;-146.47;100.00;66290.13;4967365;28;20226;-78
2021/01/13 03:42:51;;;;;;;13.93;5.23;;;2.10;99.90;;;-146.47;100.00;66290.13;4963216;28;20210;-78
2021/01/13 03:45:39;;;;;;;16.03;5.60;;;2.10;99.90;;;-146.47;100.00;66290.13;4973624;28;20205;-77
2021/01/13 03:48:45;;;;;;;15.73;5.80;;;2.20;99.90;;;-146.47;100.00;66290.13;4968436;28;20209;-77
2021/01/13 03:52:03;;;;;;;10.63;4.57;;;2.20;99.90;;;-146.47;100.00;66290.13;4968393;28;20293;-76
2021/01/13 03:54:52;;;;;;;17.07;4.80;;;2.30;99.90;;;-146.47;100.00;66290.13;4968149;28;20261;-77
2021/01/13 03:58:42;;;;;;;11.47;4.63;;;2.30;99.90;;;-146.47;100.00;66290.13;4968491;28;20218;-77
2021/01/13 04:01:57;;;;;;;12.67;4.70;;;2.40;99.90;;;-146.47;100.00;66290.13;4972347;28;20206;-76
2021/01/13 04:05:09;;;;;;;10.37;4.03;;;2.40;99.90;;;-146.47;100.00;66290.13;4967790;28;20709;-76
2021/01/13 04:07:59;;;;;;;5.67;3.40;;;2.50;99.90;;;-146.47;100.00;66290.13;4975189;28;20257;-76
2021/01/13 04:10:44;;;;;;;9.23;3.23;;;2.50;99.90;;;-146.47;100.00;66290.13;4971144;28;20233;-77
2021/01/13 04:13:42;;;;;;;6.03;3.10;;;2.60;99.90;;;-146.47;100.00;66290.13;4974692;28;20222;-77
2021/01/13 04:16:36;;;;;;;9.53;3.17;;;2.60;99.90;;;-146.47;100.00;66290.13;4972071;28;20213;-76
2021/01/13 04:19:21;;;;;;;7.00;3.03;;;2.70;99.90;;;-146.47;100.00;66290.13;4972578;28;20229;-77
2021/01/13 04:22:08;;;;;;;9.50;3.27;;;2.70;99.90;;;-146.47;100.00;66290.13;4978967;28;20260;-77
2021/01/13 04:24:55;;;;;;;10.37;3.67;;;2.70;99.90;;;-146.47;100.00;66290.13;4974409;28;20700;-77
2021/01/13 04:27:42;;;;;;;9.10;3.40;;;2.80;99.90;;;-146.47;100.00;66290.13;4977206;28;20278;-78
2021/01/13 04:30:29;;;;;;;9.27;3.03;;;2.80;99.90;;;-146.47;100.00;66290.13;4977504;28;20249;-77
2021/01/13 04:33:15;;;;;;;7.60;3.13;;;2.80;99.90;;;-146.47;100.00;66290.13;4975433;28;20245;-76
2021/01/13 04:36:02;;;;;;;10.87;3.40;;;2.90;99.90;;;-146.47;100.00;66290.13;4981299;28;20265;-77
2021/01/13 04:38:49;;;;;;;6.93;2.63;;;2.90;99.90;;;-146.47;100.00;66290.13;4982346;28;20210;-77
2021/01/13 04:42:02;;;;;;;9.07;3.07;;;2.90;99.90;;;-146.47;100.00;66290.13;4983031;28;20245;-77
2021/01/13 04:45:06;;;;;;;6.47;2.80;;;3.00;99.90;;;-146.47;100.00;66290.13;4963003;28;20210;-75
2021/01/13 04:48:02;;;;;;;12.90;3.40;;;3.00;99.90;;;-146.47;100.00;66290.13;4977819;28;20724;-77
2021/01/13 04:50:50;;;;;;;8.87;3.40;;;3.10;99.90;;;-146.47;100.00;66290.13;4975810;28;20226;-77
2021/01/13 04:53:36;;;;;;;8.63;3.10;;;3.10;99.90;;;-146.47;100.00;66290.13;4974163;28;20217;-77
2021/01/13 04:56:25;;;;;;;12.20;3.40;;;3.20;99.90;;;-146.47;100.00;66290.13;4977600;28;20210;-77
2021/01/13 04:59:55;;;;;;;7.87;3.03;;;3.20;99.90;;;-146.47;100.00;66290.13;4981502;28;20241;-77
2021/01/13 05:03:13;;;;;;;7.20;3.10;;;3.30;99.90;;;-146.47;100.00;66290.13;4977142;28;20776;-78
2021/01/13 05:06:46;;;;;;;10.00;3.10;;;3.30;99.90;;;-146.47;100.00;66290.13;4966272;28;20690;-77
2021/01/13 05:09:50;;;;;;;7.50;3.20;;;3.30;99.90;;;-146.47;100.00;66290.13;4974816;28;20272;-77
2021/01/13 05:12:52;;;;;;;7.90;3.30;;;3.30;99.90;;;-146.47;100.00;66290.13;4964936;28;20647;-75
2021/01/13 05:15:51;;;;;;;15.63;3.60;;;3.30;99.90;;;-146.47;100.00;66290.13;4972165;28;20253;-75
2021/01/13 05:18:54;;;;;;;8.40;3.33;;;3.30;99.90;;;-146.47;100.00;66290.13;4976839;28;20747;-78
2021/01/13 05:21:49;;;;;;;14.30;4.50;;;3.30;99.90;;;-146.47;100.00;66290.13;4980501;28;20225;-76
2021/01/13 05:24:41;;;;;;;10.33;4.20;;;3.30;99.90;;;-146.47;100.00;66290.13;4979086;28;20241;-76
2021/01/13 05:28:03;;;;;;;13.60;5.03;;;3.30;99.90;;;-146.47;100.00;66290.13;4978840;28;20201;-77
2021/01/13 05:30:51;;;;;;;14.97;6.20;;;3.20;99.90;;;-146.47;100.00;66290.13;4979737;28;20350;-79
2021/01/13 05:33:37;;;;;;;13.73;5.13;;;3.20;99.90;;;-146.47;100.00;66290.13;4973848;28;20775;-77
2021/01/13 05:36:29;;;;;;;11.90;4.83;;;3.20;99.90;;;-146.47;100.00;66290.13;4985875;28;20209;-77
2021/01/13 05:39:23;;;;;;;13.50;4.87;;;3.10;99.90;;;-146.47;100.00;66290.13;4978833;28;20229;-77
2021/01/13 05:42:10;;;;;;;14.47;4.90;;;3.10;99.90;;;-146.47;100.00;66290.13;4961379;28;20336;-77
2021/01/13 05:44:59;;;;;;;21.33;5.40;;;3.10;99.90;;;-146.47;100.00;66290.13;4954544;28;20226;-77
2021/01/13 05:47:53;;;;;;;14.87;5.73;;;3.00;99.90;;;-146.47;100.00;66290.13;4973099;28;20610;-77
2021/01/13 05:50:39;;;;;;;18.80;5.40;;;3.00;99.90;;;-146.47;100.00;66290.13;4960754;28;20226;-77
2021/01/13 05:53:26;;;;;;;9.20;3.80;;;2.90;99.90;;;-146.47;100.00;66290.13;4974082;28;20356;-77
2021/01/13 05:56:16;;;;;;;15.30;4.80;;;2.90;99.90;;;-146.47;100.00;66290.13;4973563;28;20248;-76
2021/01/13 05:59:04;;;;;;;15.47;4.90;;;2.90;99.90;;;-146.47;100.00;66290.13;4957667;28;20324;-76
2021/01/13 06:01:58;;;;;;;14.87;5.63;;;2.90;99.90;;;-146.47;100.00;66290.13;4966099;28;20290;-77
2021/01/13 06:04:48;;;;;;;15.47;4.90;;;2.90;99.90;;;-146.47;100.00;66290.13;4969475;28;20738;-77
2021/01/13 06:07:35;;;;;;;14.73;5.53;;;2.80;99.90;;;-146.47;100.00;66290.13;4970423;28;20201;-77
2021/01/13 06:10:25;;;;;;;11.53;5.00;;;2.80;99.90;;;-146.47;100.00;66290.13;4968050;28;20225;-77
2021/01/13 06:13:18;;;;;;;16.43;5.10;;;2.80;99.90;;;-146.47;100.00;66290.13;4970553;28;20209;-77
2021/01/13 06:16:05;;;;;;;19.23;5.70;;;2.80;99.90;;;-146.47;100.00;66290.13;4960310;28;20323;-77
2021/01/13 06:18:56;;;;;;;19.67;5.57;;;2.80;99.90;;;-146.47;100.00;66290.13;4972475;28;20252;-76
2021/01/13 06:21:44;;;;;;;14.23;4.83;;;2.70;99.90;;;-146.47;100.00;66290.13;4971376;28;20305;-77
2021/01/13 06:24:33;;;;;;;17.13;4.53;;;2.70;99.90;;;-146.47;100.00;66290.13;4976037;28;20226;-75
2021/01/13 06:27:21;;;;;;;13.50;5.27;;;2.70;99.90;;;-146.47;100.00;66290.13;4991943;28;20206;-76
2021/01/13 06:30:18;;;;;;;13.57;4.87;;;2.70;99.90;;;-146.47;100.00;66290.13;4993711;28;20218;-76
2021/01/13 06:33:08;;;;;;;13.53;5.17;;;2.70;99.90;;;-146.47;100.00;66290.13;4988775;28;20213;-76
2021/01/13 06:36:23;;;;;;;13.47;4.67;;;2.70;99.90;;;-146.47;100.00;66290.13;4975429;28;20210;-77
2021/01/13 06:39:12;;;;;;;10.50;4.70;;;2.70;99.90;;;-146.47;100.00;66290.13;4972396;28;20237;-76
2021/01/13 06:41:57;;;;;;;12.13;4.70;;;2.60;99.90;;;-146.47;100.00;66290.13;4972028;28;20217;-77
2021/01/13 06:44:48;;;;;;;14.30;4.50;;;2.60;99.90;;;-146.47;100.00;66290.13;4962796;28;20204;-77
2021/01/13 06:47:33;;;;;;;15.50;4.67;;;2.60;99.90;;;-146.47;100.00;66290.13;4955901;28;21626;-77
2021/01/13 06:50:35;;;;;;;16.37;4.50;;;2.70;99.90;;;-146.47;100.00;66290.13;4955277;28;20727;-75
2021/01/13 06:53:23;;;;;;;12.60;4.57;;;2.60;99.90;;;-146.47;100.00;66290.13;4954147;28;20209;-76
2021/01/13 06:56:12;;;;;;;12.47;4.33;;;2.50;99.90;;;-146.47;100.00;66290.13;4969457;28;20830;-76
2021/01/13 06:59:00;;;;;;;17.67;4.97;;;2.50;99.90;;;-146.47;100.00;66290.13;4960517;28;21039;-76
2021/01/13 07:01:52;;;;;;;11.83;4.50;;;2.50;99.90;;;-146.47;100.00;66290.13;4970204;28;20321;-77
2021/01/13 07:04:46;;;;;;;17.87;4.37;;;2.50;99.90;;;-146.47;100.00;66290.13;4968377;28;20193;-77
2021/01/13 07:07:31;;;;;;;21.80;4.83;;;2.40;99.90;;;-146.47;100.00;66290.13;4963283;28;20616;-77
2021/01/13 07:10:21;;;;;;;13.80;5.13;;;2.50;99.90;;;-146.47;100.00;66290.13;4966091;28;20770;-77
2021/01/13 07:13:14;;;;;;;14.00;4.17;;;2.50;99.90;;;-146.47;100.00;66290.13;4963748;28;20604;-77
2021/01/13 07:16:02;;;;;;;4.60;3.17;;;2.40;99.90;;;-146.47;100.00;66290.13;4958514;28;20210;-77
2021/01/13 07:18:47;;;;;;;15.20;5.00;;;2.40;99.90;;;-146.47;100.00;66290.13;4966316;28;20218;-77
2021/01/13 07:21:37;;;;;;;11.97;4.60;;;2.40;99.90;;;-146.47;100.00;66290.13;4966608;28;20217;-77
2021/01/13 07:24:22;;;;;;;12.50;4.47;;;2.40;99.90;;;-146.47;100.00;66290.13;4960375;28;20720;-77
2021/01/13 07:27:09;;;;;;;11.37;4.00;;;2.30;99.90;;;-146.47;100.00;66290.13;4957589;28;20205;-77
2021/01/13 07:29:58;;;;;;;10.73;3.93;;;2.30;99.90;;;-146.47;100.00;66290.13;4964803;28;20230;-76
2021/01/13 07:32:52;;;;;;;13.83;4.73;;;2.30;99.90;;;-146.47;100.00;66290.13;4966439;28;20310;-77
2021/01/13 07:35:45;;;;;;;12.50;4.30;;;2.20;99.90;;;-146.47;100.00;66290.13;4957695;28;20293;-76
2021/01/13 07:38:33;;;;;;;18.87;4.37;;;2.30;99.90;;;-146.47;100.00;66290.13;4951325;28;20331;-76
2021/01/13 07:42:15;;;;;;;11.03;4.50;;;2.30;99.90;;;-146.47;100.00;66290.13;4957069;28;20217;-76
2021/01/13 07:45:08;;;;;;;12.53;3.80;;;2.20;99.90;;;-146.47;100.00;66290.13;4945903;28;20645;-75
2021/01/13 07:48:35;;;;;;;8.20;3.33;;;2.20;99.90;;;-146.47;100.00;66290.13;4962191;28;20704;-75
2021/01/13 07:51:33;;;;;;;12.70;4.73;;;2.20;99.90;;;-146.47;100.00;66290.13;4964137;28;20771;-75
2021/01/13 07:54:29;;;;;;;18.87;4.00;;;2.20;99.90;;;-146.47;100.00;66290.13;4961567;28;20241;-75
2021/01/13 07:57:23;;;;;;;10.43;3.57;;;2.20;99.90;;;-146.47;100.00;66290.13;4960843;28;20217;-75
2021/01/13 08:00:24;;;;;;;8.00;2.73;;;2.20;99.90;;;-146.47;100.00;66290.13;4958947;28;20225;-75
2021/01/13 08:04:03;;;;;;;16.23;4.03;;;2.20;99.90;;;-146.47;100.00;66290.13;4965171;28;20212;-75
2021/01/13 08:06:53;;;;;;;7.17;1.97;;;2.20;99.90;;;-146.47;100.00;66290.13;4937570;28;20577;-76
2021/01/13 08:09:50;;;;;;;12.77;4.13;;;2.10;99.90;;;-146.47;100.00;66290.13;4964705;28;20361;-75
2021/01/13 08:13:38;;;;;;;13.60;3.60;;;2.20;99.90;;;-146.47;100.00;66290.13;4961554;28;21924;-75
2021/01/13 08:16:58;;;;;;;9.77;2.57;;;2.20;99.90;;;-146.47;100.00;66290.13;4959959;28;20582;-75
2021/01/13 08:20:48;;;;;;;12.00;3.47;;;2.20;99.90;;;-146.47;100.00;66290.13;4964984;28;20232;-75
2021/01/13 08:23:39;;;;;;;15.63;4.07;;;2.20;99.90;;;-146.47;100.00;66290.13;4961435;28;20330;-76
2021/01/13 08:26:25;;;;;;;12.67;4.33;;;2.20;99.90;;;-146.47;100.00;66290.13;4963469;28;20733;-76
2021/01/13 08:29:20;;;;;;;12.50;3.70;;;2.20;99.90;;;-146.47;100.00;66290.13;4963833;28;20704;-76
2021/01/13 08:32:10;;;;;;;10.87;3.53;;;2.20;99.90;;;-146.47;100.00;66290.13;4964670;28;20246;-77
2021/01/13 08:35:05;;;;;;;10.40;3.57;;;2.20;99.90;;;-146.47;100.00;66290.13;4963187;28;20291;-76
2021/01/13 08:38:06;;;;;;;10.53;3.10;;;2.40;99.90;;;-146.47;100.00;66290.13;4969756;28;20205;-76
2021/01/13 08:40:54;;;;;;;13.73;3.67;;;2.30;99.90;;;-146.47;100.00;66290.13;4980475;28;20827;-75
2021/01/13 08:44:03;;;;;;;13.97;3.83;;;2.30;99.90;;;-146.47;100.00;66290.13;4978975;28;20214;-75
2021/01/13 08:47:01;;;;;;;14.90;3.63;;;2.40;99.90;;;-146.47;100.00;66290.13;4965322;28;20245;-76
2021/01/13 08:49:49;;;;;;;9.60;3.60;;;2.40;99.90;;;-146.47;100.00;66290.13;4963989;28;20305;-76
2021/01/13 08:52:47;;;;;;;12.10;4.00;;;2.40;99.90;;;-146.47;100.00;66290.13;4955591;28;20207;-77
2021/01/13 08:55:33;;;;;;;14.00;4.43;;;2.50;99.90;;;-146.47;100.00;66290.13;4967355;28;20270;-75
2021/01/13 08:58:28;;;;;;;8.00;3.93;;;2.50;99.90;;;-146.47;100.00;66290.13;4963132;28;20212;-76
2021/01/13 09:01:14;;;;;;;9.80;3.80;;;2.60;99.90;;;-146.47;100.00;66290.13;4954816;28;20779;-77
2021/01/13 09:04:15;;;;;;;13.50;4.80;;;2.70;99.90;;;-146.47;100.00;66290.13;4961018;28;20214;-76
2021/01/13 09:07:05;;;;;;;14.67;4.27;;;2.90;99.90;;;-146.47;100.00;66290.13;4957795;28;20260;-77
2021/01/13 09:10:02;;;;;;;11.67;3.83;;;3.10;99.90;;;-146.47;100.00;66290.13;4954259;28;20303;-77
2021/01/13 09:12:50;;;;;;;12.00;3.33;;;3.30;99.90;;;-146.47;100.00;66290.13;4959115;28;20202;-76
2021/01/13 09:15:43;;;;;;;10.27;3.70;;;3.60;99.90;;;-146.47;100.00;66290.13;4974334;28;20250;-77
2021/01/13 09:18:35;;;;;;;9.93;3.30;;;3.80;99.90;;;-146.47;100.00;66290.13;4973159;28;20211;-77
2021/01/13 09:21:28;;;;;;;10.23;3.53;;;4.10;99.90;;;-146.47;100.00;66290.13;4965048;28;20222;-77
2021/01/13 09:24:18;;;;;;;10.07;3.50;;;4.50;99.90;;;-146.47;100.00;66290.13;4973797;28;20215;-76
2021/01/13 09:27:07;;;;;;;9.37;3.10;;;4.70;99.90;;;-146.47;100.00;66290.13;4979165;28;20233;-78
2021/01/13 09:29:54;;;;;;;14.70;3.53;;;5.10;99.90;;;-146.47;100.00;66290.13;4957081;28;20294;-77
2021/01/13 09:32:53;;;;;;;8.63;3.77;;;5.40;99.90;;;-146.47;100.00;66290.13;4959979;28;20288;-76
2021/01/13 09:35:40;;;;;;;10.27;3.47;;;5.80;99.90;;;-146.47;100.00;66290.13;4969584;28;20473;-75
2021/01/13 09:38:28;;;;;;;6.03;3.30;;;6.10;99.90;;;-146.47;100.00;66290.13;4971449;28;20214;-76
2021/01/13 09:41:24;;;;;;;8.13;2.77;;;6.50;99.90;;;-146.47;100.00;66290.13;4956864;28;20766;-77
2021/01/13 09:44:13;;;;;;;13.60;3.43;;;6.90;99.90;;;-146.47;100.00;66290.13;4969778;28;20257;-76
2021/01/13 09:46:59;;;;;;;11.33;3.33;;;7.30;99.90;;;-146.47;100.00;66290.13;4959477;28;20233;-76
2021/01/13 09:49:48;;;;;;;8.70;3.23;;;7.60;99.90;;;-146.47;100.00;66290.13;4968577;28;20323;-76
2021/01/13 09:52:40;;;;;;;8.37;3.53;;;8.00;99.90;;;-146.47;100.00;66290.13;4955957;28;20334;-77
2021/01/13 09:55:26;;;;;;;10.40;4.40;;;8.40;99.90;;;-146.47;100.00;66290.13;4965026;28;20284;-76
2021/01/13 09:58:26;;;;;;;7.33;3.80;;;8.70;99.90;;;-146.47;100.00;66290.13;4965768;28;20205;-76
2021/01/13 10:01:18;;;;;;;14.70;3.73;;;9.00;99.90;;;-146.47;100.00;66290.13;4962440;28;20297;-77
2021/01/13 10:04:10;;;;;;;6.90;3.00;;;9.40;99.90;;;-146.47;100.00;66290.13;4961711;28;20210;-76
2021/01/13 10:07:06;;;;;;;10.20;4.13;;;9.70;99.90;;;-146.47;100.00;66290.13;4965499;28;20241;-76
2021/01/13 10:09:52;;;;;;;12.50;3.80;;;10.00;99.90;;;-146.47;100.00;66290.13;4968314;28;20221;-75
2021/01/13 10:12:40;;;;;;;8.83;3.83;;;10.30;99.90;;;-146.47;100.00;66290.13;4965539;28;20285;-76
2021/01/13 10:15:26;;;;;;;14.20;4.27;;;10.70;99.90;;;-146.47;100.00;66290.13;4964545;28;20330;-77
2021/01/13 10:18:12;;;;;;;11.27;3.53;;;11.00;99.90;;;-146.47;100.00;66290.13;4966727;28;20949;-76
2021/01/13 10:20:59;;;;;;;8.60;3.60;;;11.30;99.90;;;-146.47;100.00;66290.13;4970396;28;20225;-76
2021/01/13 10:23:47;;;;;;;6.87;3.73;;;11.70;99.90;;;-146.47;100.00;66290.13;4966364;28;20589;-76
2021/01/13 10:26:37;;;;;;;11.23;3.07;;;12.00;99.90;;;-146.47;100.00;66290.13;4968844;28;20261;-75
2021/01/13 10:29:24;;;;;;;11.00;3.90;;;12.30;99.90;;;-146.47;100.00;66290.13;4969724;28;20284;-75
2021/01/13 10:32:11;;;;;;;9.10;3.63;;;12.60;99.90;;;-146.47;100.00;66290.13;4962947;28;20216;-76
2021/01/13 10:34:56;;;;;;;12.00;4.23;;;13.00;99.90;;;-146.47;100.00;66290.13;4970510;28;20703;-76
2021/01/13 10:37:51;;;;;;;7.20;3.30;;;13.30;99.90;;;-146.47;100.00;66290.13;4969162;28;20269;-76
2021/01/13 10:40:39;;;;;;;9.10;3.70;;;13.60;99.90;;;-146.47;100.00;66290.13;4967245;28;20309;-76
2021/01/13 10:43:26;;;;;;;13.57;4.20;;;14.00;99.90;;;-146.47;100.00;66290.13;4969171;28;20257;-76
2021/01/13 10:46:11;;;;;;;8.60;3.90;;;14.30;99.90;;;-146.47;100.00;66290.13;4957125;28;20241;-76
2021/01/13 10:49:03;;;;;;;7.23;3.97;;;14.60;99.90;;;-146.47;100.00;66290.13;4962836;28;20236;-76
2021/01/13 10:51:51;;;;;;;11.30;3.83;;;15.00;99.90;;;-146.47;100.00;66290.13;4952791;28;20322;-76
2021/01/13 10:54:40;;;;;;;8.50;3.50;;;15.30;99.90;;;-146.47;100.00;66290.13;4956916;28;20573;-76
2021/01/13 10:57:30;;;;;;;8.80;3.93;;;15.60;99.90;;;-146.47;100.00;66290.13;4962182;28;20219;-75
2021/01/13 11:00:17;;;;;;;12.10;4.23;;;15.80;99.90;;;-146.47;100.00;66290.13;4958678;28;20241;-76
2021/01/13 11:03:02;;;;;;;8.83;4.13;;;16.20;99.90;;;-146.47;100.00;66290.13;4960181;28;20222;-76
2021/01/13 11:05:51;;;;;;;13.03;4.20;;;16.50;98.60;;;-146.47;100.00;66290.13;4956589;28;20217;-76
2021/01/13 11:08:39;;;;;;;8.33;3.80;;;16.80;95.40;;;-146.47;100.00;66290.13;4957098;28;20214;-76
2021/01/13 11:11:25;;;;;;;11.07;4.40;;;17.10;95.00;;;-146.47;100.00;66290.13;4961942;28;20768;-76
2021/01/13 11:14:10;;;;;;;10.97;4.43;;;17.30;93.60;;;-146.47;100.00;66290.13;4961798;28;20269;-77
2021/01/13 11:17:05;;;;;;;10.73;4.30;;;17.50;92.60;;;-146.47;100.00;66290.13;4964741;28;20247;-76
2021/01/13 11:19:57;;;;;;;8.50;3.80;;;17.60;91.80;;;-146.47;100.00;66290.13;4959359;28;20317;-76
2021/01/13 11:22:47;;;;;;;9.60;4.00;;;17.70;91.40;;;-146.47;100.00;66290.13;4959036;28;20230;-76
2021/01/13 11:25:36;;;;;;;9.13;4.30;;;17.80;90.10;;;-146.47;100.00;66290.13;4956519;28;20637;-75
2021/01/13 11:28:28;;;;;;;9.73;4.20;;;17.70;89.80;;;-146.47;100.00;66290.13;4975222;28;20292;-77
2021/01/13 11:31:18;;;;;;;8.73;4.07;;;17.50;90.30;;;-146.47;100.00;66290.13;4958142;28;20278;-75
2021/01/13 11:34:09;;;;;;;11.07;4.23;;;17.30;90.20;;;-146.47;100.00;66290.13;4967939;28;20233;-75
2021/01/13 11:37:19;;;;;;;7.03;4.30;;;17.20;88.50;;;-146.47;100.00;66290.13;4967494;28;20696;-77
2021/01/13 11:40:32;;;;;;;7.73;3.80;;;16.90;90.00;;;-146.47;100.00;66290.13;4956829;28;20235;-77
2021/01/13 11:43:59;;;;;;;10.00;4.27;;;16.60;90.80;;;-146.47;100.00;66290.13;4958778;28;20210;-77
2021/01/13 11:46:46;;;;;;;10.60;4.13;;;16.40;91.50;;;-146.47;100.00;66290.13;4972882;28;20210;-77